Time;durP1;ratioP1;P1;durP2;ratioP2;P2;SDS_P1;SDS_P2;PMS_P1;PMS_P2;Temp;Humidity;BMP_temperature;BMP_pressure;BME280_temperature;BME280_humidity;BME280_pressure;Samples;Min_cycle;Max_cycle;Signal;HPM_P1;HPM_P2
2022/04/06 00:02:13;;;;;;;26.10;8.23;;;9.00;99.90;;;;;;5093145;28;20054;-82
2022/04/06 00:04:39;;;;;;;31.15;9.50;;;8.10;99.90;;;;;;5074845;28;20052;-83
2022/04/06 00:07:05;;;;;;;29.30;9.20;;;8.20;99.90;;;;;;5110606;28;20066;-80
2022/04/06 00:09:30;;;;;;;32.67;9.77;;;8.10;99.90;;;;;;5111769;28;20039;-82
2022/04/06 00:12:11;;;;;;;35.63;10.90;;;8.20;99.90;;;;;;5111606;28;20066;-82
2022/04/06 00:14:37;;;;;;;32.78;10.85;;;8.50;99.90;;;;;;5111700;28;20137;-81
2022/04/06 00:17:05;;;;;;;29.85;11.02;;;8.20;99.90;;;;;;5111816;28;20042;-81
2022/04/06 00:19:35;;;;;;;32.45;11.18;;;8.10;99.90;;;;;;5094486;28;20035;-83
2022/04/06 00:22:01;;;;;;;30.08;10.80;;;8.20;99.90;;;;;;5113115;28;20043;-80
2022/04/06 00:24:27;;;;;;;33.33;12.38;;;8.80;99.90;;;;;;5111497;28;20039;-82
2022/04/06 00:26:53;;;;;;;40.67;13.07;;;8.80;99.90;;;;;;5094283;28;20387;-82
2022/04/06 00:29:19;;;;;;;41.50;13.45;;;8.50;99.90;;;;;;5113229;28;20066;-80
2022/04/06 00:31:45;;;;;;;35.45;13.73;;;8.60;99.90;;;;;;5113144;28;20151;-80
2022/04/06 00:34:11;;;;;;;41.53;13.73;;;8.10;99.90;;;;;;5106908;28;20028;-83
2022/04/06 00:36:36;;;;;;;34.15;13.40;;;8.80;99.90;;;;;;5092549;28;20483;-81
2022/04/06 00:39:03;;;;;;;41.30;14.07;;;8.10;99.90;;;;;;5074349;28;20459;-81
2022/04/06 00:41:28;;;;;;;45.30;14.52;;;8.80;99.90;;;;;;5092900;28;20043;-79
2022/04/06 00:44:15;;;;;;;46.97;15.05;;;8.40;99.90;;;;;;5090341;28;20360;-80
2022/04/06 00:46:43;;;;;;;44.22;15.25;;;8.20;99.90;;;;;;5092608;28;20146;-81
2022/04/06 00:49:11;;;;;;;42.05;14.70;;;8.20;99.90;;;;;;5073674;28;20089;-82
2022/04/06 00:51:50;;;;;;;48.65;15.98;;;8.20;99.90;;;;;;5090206;28;20044;-80
2022/04/06 00:54:18;;;;;;;47.50;15.55;;;8.10;99.90;;;;;;5090535;28;20097;-79
2022/04/06 00:56:46;;;;;;;50.03;15.35;;;8.20;99.90;;;;;;5091188;28;20082;-80
2022/04/06 00:59:12;;;;;;;42.40;14.95;;;8.20;99.90;;;;;;5090538;28;20051;-83
2022/04/06 01:01:39;;;;;;;42.35;15.15;;;8.20;99.90;;;;;;5090589;28;20042;-80
2022/04/06 01:04:05;;;;;;;40.03;14.85;;;8.70;99.90;;;;;;5091876;28;20044;-79
2022/04/06 01:06:30;;;;;;;38.00;15.35;;;8.20;99.90;;;;;;5105701;28;20367;-80
2022/04/06 01:08:57;;;;;;;49.95;15.75;;;8.60;99.90;;;;;;5111070;28;20048;-80
2022/04/06 01:11:24;;;;;;;45.90;15.18;;;9.00;99.90;;;;;;5110881;28;20048;-81
2022/04/06 01:13:51;;;;;;;44.38;14.75;;;8.70;99.90;;;;;;5093522;28;20071;-83
2022/04/06 01:16:17;;;;;;;44.47;14.43;;;8.50;99.90;;;;;;5111432;28;20058;-78
2022/04/06 01:18:43;;;;;;;43.92;13.68;;;8.20;99.90;;;;;;5094317;28;20052;-81
2022/04/06 01:21:11;;;;;;;43.53;14.43;;;8.20;99.90;;;;;;5099705;28;20055;-82
2022/04/06 01:23:42;;;;;;;42.50;13.85;;;8.20;99.90;;;;;;5094196;28;20368;-80
2022/04/06 01:26:24;;;;;;;42.45;13.55;;;8.20;99.90;;;;;;5110673;28;20129;-81
2022/04/06 01:28:50;;;;;;;36.08;13.32;;;8.20;99.90;;;;;;5110670;28;20108;-83
2022/04/06 01:31:17;;;;;;;37.28;13.93;;;8.20;99.90;;;;;;5112293;28;20504;-83
2022/04/06 01:33:44;;;;;;;35.17;13.05;;;8.20;99.90;;;;;;5109895;28;20037;-83
2022/04/06 01:36:10;;;;;;;41.90;12.93;;;8.40;99.90;;;;;;5090763;28;20116;-80
2022/04/06 01:38:35;;;;;;;37.63;12.68;;;8.90;99.90;;;;;;5090073;28;20044;-83
2022/04/06 01:41:02;;;;;;;38.85;12.95;;;8.30;99.90;;;;;;5092367;28;20055;-82
2022/04/06 01:43:28;;;;;;;44.70;12.65;;;8.80;99.90;;;;;;5093742;28;20056;-83
2022/04/06 01:45:54;;;;;;;33.75;12.70;;;8.50;99.90;;;;;;5077188;28;20050;-80
2022/04/06 01:48:20;;;;;;;45.65;12.70;;;8.20;99.90;;;;;;5099911;28;20040;-83
2022/04/06 01:53:31;;;;;;;34.42;11.18;;;8.20;99.90;;;;;;5093569;28;20043;-84
2022/04/06 01:55:57;;;;;;;44.72;12.63;;;8.20;99.90;;;;;;5093706;28;20512;-80
2022/04/06 01:58:23;;;;;;;33.97;11.77;;;8.30;99.90;;;;;;5093246;28;20443;-83
2022/04/06 02:00:50;;;;;;;33.03;11.55;;;8.30;99.90;;;;;;5093638;28;20078;-80
2022/04/06 02:03:16;;;;;;;31.30;11.00;;;8.30;99.90;;;;;;5095070;28;20044;-80
2022/04/06 02:05:42;;;;;;;31.77;11.20;;;8.30;99.90;;;;;;5086779;27;20123;-80
2022/04/06 02:08:08;;;;;;;30.80;10.55;;;8.30;99.90;;;;;;5100997;27;20035;-80
2022/04/06 02:10:34;;;;;;;31.98;10.48;;;8.30;99.90;;;;;;5101236;27;20063;-81
2022/04/06 02:13:02;;;;;;;27.15;9.88;;;8.30;99.90;;;;;;5100324;27;20051;-82
2022/04/06 02:15:27;;;;;;;26.50;9.98;;;8.30;99.90;;;;;;5100779;27;20343;-82
2022/04/06 02:17:54;;;;;;;24.02;9.10;;;8.40;99.90;;;;;;5100726;27;20053;-79
2022/04/06 02:20:20;;;;;;;31.05;9.82;;;8.30;99.90;;;;;;5116923;27;20164;-80
2022/04/06 02:22:46;;;;;;;27.15;8.68;;;8.30;99.90;;;;;;5100560;27;20068;-82
2022/04/06 02:25:12;;;;;;;30.67;10.18;;;8.30;99.90;;;;;;5117261;27;20520;-81
2022/04/06 02:27:48;;;;;;;25.30;9.27;;;8.40;99.90;;;;;;5117018;27;20118;-83
2022/04/06 02:30:14;;;;;;;26.77;9.10;;;8.30;99.90;;;;;;5100510;27;20419;-81
2022/04/06 02:32:40;;;;;;;29.55;9.35;;;8.30;99.90;;;;;;5117514;27;20039;-79
2022/04/06 02:35:06;;;;;;;34.40;9.10;;;8.30;99.90;;;;;;5096105;28;20043;-83
2022/04/06 02:37:33;;;;;;;26.20;7.60;;;8.30;99.90;;;;;;5113558;28;20096;-83
2022/04/06 02:39:59;;;;;;;30.23;8.25;;;8.30;99.90;;;;;;5079654;28;20047;-81
2022/04/06 02:42:24;;;;;;;25.00;8.50;;;8.40;99.90;;;;;;5096437;28;20120;-82
2022/04/06 02:44:50;;;;;;;29.08;8.07;;;8.30;99.90;;;;;;5079323;28;20058;-81
2022/04/06 02:47:16;;;;;;;25.60;7.30;;;8.30;99.90;;;;;;5096531;28;20079;-80
2022/04/06 02:49:41;;;;;;;21.75;7.55;;;8.50;99.90;;;;;;5096208;28;20453;-83
2022/04/06 02:52:08;;;;;;;25.08;7.22;;;8.30;99.90;;;;;;5096754;28;20146;-83
2022/04/06 02:54:33;;;;;;;22.75;6.03;;;8.30;99.90;;;;;;5079758;28;20088;-81
2022/04/06 02:56:59;;;;;;;21.30;6.15;;;8.40;99.90;;;;;;5096160;28;20111;-82
2022/04/06 02:59:25;;;;;;;21.42;5.55;;;8.20;99.90;;;;;;5096552;28;20069;-82
2022/04/06 03:01:50;;;;;;;19.73;5.22;;;8.30;99.90;;;;;;5079343;28;20108;-83
2022/04/06 03:04:16;;;;;;;14.65;4.75;;;8.20;99.90;;;;;;5096100;28;20114;-81
2022/04/06 03:06:41;;;;;;;17.98;5.00;;;8.40;99.90;;;;;;5111615;27;20132;-82
2022/04/06 03:09:07;;;;;;;19.15;5.18;;;8.20;99.90;;;;;;5116953;27;20051;-83
2022/04/06 03:11:51;;;;;;;15.40;4.57;;;8.30;99.90;;;;;;5100160;27;20046;-81
2022/04/06 03:14:17;;;;;;;12.05;4.30;;;8.20;99.90;;;;;;5115939;27;20043;-80
2022/04/06 03:16:43;;;;;;;14.68;3.83;;;8.20;99.90;;;;;;5117084;27;20398;-80
2022/04/06 03:19:08;;;;;;;14.32;4.15;;;8.30;99.90;;;;;;5116077;27;20043;-83
2022/04/06 03:21:34;;;;;;;12.25;3.78;;;8.30;99.90;;;;;;5116862;27;20122;-79
2022/04/06 03:23:59;;;;;;;16.40;4.13;;;8.30;99.90;;;;;;5116938;27;20515;-82
2022/04/06 03:26:25;;;;;;;16.33;3.60;;;8.20;99.90;;;;;;5099679;27;20152;-81
2022/04/06 03:28:51;;;;;;;9.93;3.13;;;8.30;99.90;;;;;;5116073;27;20122;-83
2022/04/06 03:31:16;;;;;;;9.25;3.13;;;8.20;99.90;;;;;;5116435;27;20049;-83
2022/04/06 03:33:42;;;;;;;13.70;3.60;;;8.30;99.90;;;;;;5097079;27;20123;-84
2022/04/06 03:36:08;;;;;;;14.65;3.75;;;8.20;99.90;;;;;;5095972;28;20044;-80
2022/04/06 03:38:34;;;;;;;20.70;3.67;;;8.30;99.90;;;;;;5095733;28;20039;-82
2022/04/06 03:41:00;;;;;;;14.90;3.50;;;8.30;99.90;;;;;;5095822;28;20478;-82
2022/04/06 03:43:25;;;;;;;15.32;3.80;;;8.20;99.90;;;;;;5095172;28;20044;-81
2022/04/06 03:45:51;;;;;;;14.15;3.30;;;8.30;99.90;;;;;;5095666;28;20059;-83
2022/04/06 03:48:17;;;;;;;13.55;3.80;;;8.20;99.90;;;;;;5078314;28;20079;-84
2022/04/06 03:50:42;;;;;;;19.33;4.07;;;8.30;99.90;;;;;;5095719;28;20445;-85
2022/04/06 03:53:08;;;;;;;10.43;3.33;;;8.40;99.90;;;;;;5095363;28;20482;-83
2022/04/06 03:55:34;;;;;;;13.70;4.57;;;8.30;99.90;;;;;;5095428;28;20046;-84
2022/04/06 03:58:00;;;;;;;17.20;4.47;;;8.30;99.90;;;;;;5078165;28;20044;-84
2022/04/06 04:00:25;;;;;;;20.80;4.90;;;8.20;99.90;;;;;;5096234;28;20051;-86
2022/04/06 04:02:51;;;;;;;15.68;5.28;;;8.90;99.90;;;;;;5095419;28;20040;-82
2022/04/06 04:05:18;;;;;;;19.08;5.28;;;8.20;99.90;;;;;;5081414;27;20043;-82
2022/04/06 04:07:44;;;;;;;19.02;5.30;;;8.20;99.90;;;;;;5098589;27;20039;-82
2022/04/06 04:10:11;;;;;;;19.00;5.75;;;8.20;99.90;;;;;;5098760;27;20061;-82
2022/04/06 04:12:38;;;;;;;20.73;6.13;;;8.30;99.90;;;;;;5098167;27;20599;-84
2022/04/06 04:15:05;;;;;;;22.50;5.90;;;8.20;99.90;;;;;;5098571;27;20394;-84
2022/04/06 04:17:30;;;;;;;21.92;5.90;;;8.20;99.90;;;;;;5115430;27;20042;-84
2022/04/06 04:19:56;;;;;;;22.00;6.40;;;8.30;99.90;;;;;;5115598;27;20118;-82
2022/04/06 04:22:22;;;;;;;22.58;6.68;;;8.70;99.90;;;;;;5114974;27;20150;-84
2022/04/06 04:24:48;;;;;;;26.15;7.93;;;8.20;99.90;;;;;;5115183;27;20486;-82
2022/04/06 04:27:14;;;;;;;27.90;7.47;;;8.30;99.90;;;;;;5098029;27;20049;-83
2022/04/06 04:29:39;;;;;;;37.50;8.30;;;8.40;99.90;;;;;;5115031;27;20126;-81
2022/04/06 04:32:05;;;;;;;19.13;6.90;;;8.20;99.90;;;;;;5115007;27;20050;-81
2022/04/06 04:34:31;;;;;;;29.02;8.38;;;8.20;99.90;;;;;;5110915;28;20039;-82
2022/04/06 04:36:57;;;;;;;23.77;6.97;;;8.20;99.90;;;;;;5094799;28;20036;-82
2022/04/06 04:39:22;;;;;;;31.02;8.25;;;8.30;99.90;;;;;;5094253;28;20078;-81
2022/04/06 04:42:07;;;;;;;32.83;8.45;;;8.10;99.90;;;;;;5094464;28;20061;-81
2022/04/06 04:44:33;;;;;;;22.67;8.45;;;8.30;99.90;;;;;;5094067;28;20055;-81
2022/04/06 04:46:58;;;;;;;30.38;8.80;;;8.20;99.90;;;;;;5094301;28;20048;-82
2022/04/06 04:49:24;;;;;;;29.75;8.95;;;8.10;99.90;;;;;;5093892;28;20073;-83
2022/04/06 04:51:50;;;;;;;25.52;8.10;;;8.20;99.90;;;;;;5094157;28;20479;-82
2022/04/06 04:54:17;;;;;;;33.20;8.27;;;8.30;99.90;;;;;;5076935;28;20040;-80
2022/04/06 04:56:43;;;;;;;24.58;8.00;;;8.20;99.90;;;;;;5094305;28;20054;-79
2022/04/06 04:59:09;;;;;;;25.08;8.77;;;8.30;99.90;;;;;;5093174;28;20059;-83
2022/04/06 05:01:35;;;;;;;31.52;8.85;;;8.20;99.90;;;;;;5077990;28;20039;-81
2022/04/06 05:04:00;;;;;;;28.35;8.45;;;8.20;99.90;;;;;;5093765;28;20055;-82
2022/04/06 05:06:26;;;;;;;23.25;7.57;;;8.30;99.90;;;;;;5110281;27;20061;-81
2022/04/06 05:08:52;;;;;;;22.85;7.80;;;8.20;99.90;;;;;;5114230;28;20486;-81
2022/04/06 05:11:17;;;;;;;35.03;8.18;;;8.20;99.90;;;;;;5114711;28;20035;-81
2022/04/06 05:13:43;;;;;;;27.73;7.80;;;8.20;99.90;;;;;;5113900;27;20085;-83
2022/04/06 05:16:09;;;;;;;25.02;7.28;;;8.10;99.90;;;;;;5097610;28;20134;-81
2022/04/06 05:18:34;;;;;;;25.58;7.63;;;8.10;99.90;;;;;;5114183;28;20482;-82
2022/04/06 05:21:00;;;;;;;20.98;7.15;;;8.20;99.90;;;;;;5114550;28;20050;-82
2022/04/06 05:23:26;;;;;;;30.27;7.65;;;8.20;99.90;;;;;;5114528;28;20046;-83
2022/04/06 05:25:51;;;;;;;25.05;7.28;;;8.20;99.90;;;;;;5117978;28;20038;-80
2022/04/06 05:28:18;;;;;;;27.05;7.00;;;8.20;99.90;;;;;;5113902;28;20039;-81
2022/04/06 05:30:46;;;;;;;26.73;7.47;;;8.10;99.90;;;;;;5096877;28;20458;-81
2022/04/06 05:33:12;;;;;;;20.65;5.60;;;8.10;99.90;;;;;;5113729;28;20114;-79
2022/04/06 05:35:38;;;;;;;28.00;7.65;;;8.20;99.90;;;;;;5093992;28;20189;-81
2022/04/06 05:38:07;;;;;;;28.95;7.05;;;8.10;99.90;;;;;;5095832;28;20070;-83
2022/04/06 05:40:33;;;;;;;25.95;6.72;;;8.10;99.90;;;;;;5081358;28;20050;-80
2022/04/06 05:43:41;;;;;;;27.98;7.45;;;8.10;99.90;;;;;;5098388;28;20097;-82
2022/04/06 05:46:07;;;;;;;24.95;7.40;;;8.10;99.90;;;;;;5057417;28;20049;-83
2022/04/06 05:48:34;;;;;;;25.55;6.45;;;8.10;99.90;;;;;;5074854;28;20487;-79
2022/04/06 05:51:01;;;;;;;28.50;7.82;;;8.20;99.90;;;;;;5074162;28;20079;-82
2022/04/06 05:53:27;;;;;;;28.77;7.38;;;8.00;99.90;;;;;;5073846;28;20392;-81
2022/04/06 05:55:53;;;;;;;26.70;7.47;;;8.00;99.90;;;;;;5057064;28;20135;-79
2022/04/06 05:58:19;;;;;;;23.38;7.95;;;8.00;99.90;;;;;;5073386;28;20099;-80
2022/04/06 06:00:45;;;;;;;27.35;7.25;;;8.10;99.90;;;;;;5075455;28;20047;-80
2022/04/06 06:03:11;;;;;;;24.23;7.97;;;8.70;99.90;;;;;;5056478;28;20446;-81
2022/04/06 06:05:36;;;;;;;25.52;8.02;;;8.60;99.90;;;;;;5079847;28;20040;-80
2022/04/06 06:08:02;;;;;;;32.72;8.52;;;8.80;99.90;;;;;;5094456;28;20064;-84
2022/04/06 06:10:28;;;;;;;23.45;7.15;;;7.90;99.90;;;;;;5093993;28;20040;-82
2022/04/06 06:12:54;;;;;;;22.80;7.15;;;8.60;99.90;;;;;;5076881;28;20040;-82
2022/04/06 06:15:19;;;;;;;22.90;6.53;;;8.10;99.90;;;;;;5094100;28;20127;-80
2022/04/06 06:17:45;;;;;;;22.60;7.38;;;8.00;99.90;;;;;;5095080;28;20479;-81
2022/04/06 06:20:11;;;;;;;25.20;7.10;;;7.90;99.90;;;;;;5094800;28;20040;-82
2022/04/06 06:22:37;;;;;;;21.95;6.25;;;8.10;99.90;;;;;;5093828;28;20032;-85
2022/04/06 06:25:03;;;;;;;19.13;5.90;;;8.00;99.90;;;;;;5076774;28;20036;-85
2022/04/06 06:27:29;;;;;;;25.00;6.85;;;8.00;99.90;;;;;;5076751;28;20078;-84
2022/04/06 06:29:54;;;;;;;19.23;6.00;;;8.00;99.90;;;;;;5093923;28;20079;-84
2022/04/06 06:32:20;;;;;;;22.02;6.38;;;8.60;99.90;;;;;;5093574;28;20464;-81
2022/04/06 06:34:46;;;;;;;19.13;5.88;;;8.70;99.90;;;;;;5082692;28;20062;-82
2022/04/06 06:37:11;;;;;;;16.48;5.60;;;8.10;99.90;;;;;;5073397;28;20040;-83
2022/04/06 06:39:38;;;;;;;22.20;5.82;;;8.10;99.90;;;;;;5057318;28;20381;-80
2022/04/06 06:42:07;;;;;;;12.45;5.05;;;8.10;99.90;;;;;;5073623;28;20148;-80
2022/04/06 06:44:33;;;;;;;18.27;5.28;;;8.10;99.90;;;;;;5070810;28;20118;-83
2022/04/06 06:46:59;;;;;;;17.17;5.18;;;8.70;99.90;;;;;;5076882;28;20472;-80
2022/04/06 06:49:25;;;;;;;15.40;5.47;;;8.70;99.90;;;;;;5091676;28;20158;-82
2022/04/06 06:51:50;;;;;;;18.50;5.50;;;8.20;99.90;;;;;;5076499;28;20128;-82
2022/04/06 06:54:16;;;;;;;14.27;4.88;;;8.50;99.90;;;;;;5093177;28;20047;-80
2022/04/06 06:56:42;;;;;;;21.52;5.43;;;8.10;99.90;;;;;;5093657;28;20040;-85
2022/04/06 06:59:07;;;;;;;20.98;5.50;;;8.20;99.90;;;;;;5092836;28;20480;-81
2022/04/06 07:01:33;;;;;;;19.92;5.93;;;8.00;99.90;;;;;;5093341;28;20079;-80
2022/04/06 07:03:58;;;;;;;24.45;5.50;;;8.70;99.90;;;;;;5094503;28;20055;-81
2022/04/06 07:06:24;;;;;;;15.90;3.38;;;8.50;99.90;;;;;;5108587;28;20071;-80
2022/04/06 07:08:50;;;;;;;14.88;3.53;;;8.00;99.90;;;;;;5098222;28;20051;-82
2022/04/06 07:11:15;;;;;;;19.58;3.90;;;8.00;99.90;;;;;;5107295;28;20047;-79
2022/04/06 07:13:56;;;;;;;16.88;3.20;;;8.70;99.90;;;;;;5116229;28;20032;-83
2022/04/06 07:16:22;;;;;;;15.70;3.97;;;8.20;99.90;;;;;;5097397;28;20386;-82
2022/04/06 07:18:48;;;;;;;15.32;3.30;;;8.00;99.90;;;;;;5096267;28;20055;-79
2022/04/06 07:21:13;;;;;;;20.75;4.40;;;8.70;99.90;;;;;;5096402;28;20402;-81
2022/04/06 07:23:40;;;;;;;15.30;3.38;;;8.50;99.90;;;;;;5106748;28;20048;-81
2022/04/06 07:26:06;;;;;;;16.17;3.40;;;8.00;99.90;;;;;;5092879;28;20186;-83
2022/04/06 07:28:32;;;;;;;17.73;3.85;;;8.00;99.90;;;;;;5075459;28;20122;-81
2022/04/06 07:30:59;;;;;;;19.83;3.88;;;8.90;99.90;;;;;;5075662;28;20078;-82
2022/04/06 07:33:25;;;;;;;14.27;4.22;;;8.00;99.90;;;;;;5091869;28;20448;-80
2022/04/06 07:35:51;;;;;;;14.05;3.17;;;8.30;99.90;;;;;;5113437;28;20086;-81
2022/04/06 07:38:18;;;;;;;14.30;3.70;;;8.20;99.90;;;;;;5112868;28;20040;-81
2022/04/06 07:40:44;;;;;;;13.40;3.85;;;8.20;99.90;;;;;;5095978;28;20035;-83
2022/04/06 07:43:11;;;;;;;11.32;3.55;;;9.00;99.90;;;;;;5112040;28;20519;-80
2022/04/06 07:45:36;;;;;;;10.60;3.60;;;8.10;99.90;;;;;;5112379;28;20503;-83
2022/04/06 07:48:04;;;;;;;13.40;3.65;;;8.10;99.90;;;;;;5095448;28;20051;-83
2022/04/06 07:50:30;;;;;;;13.48;3.45;;;8.20;99.90;;;;;;5113753;28;20082;-82
2022/04/06 07:52:55;;;;;;;13.63;3.10;;;8.90;99.90;;;;;;5096359;28;20455;-82
2022/04/06 07:55:21;;;;;;;19.63;3.72;;;8.50;99.90;;;;;;5112248;28;20122;-82
2022/04/06 07:57:47;;;;;;;14.32;3.67;;;8.20;99.90;;;;;;5113196;28;20050;-83
2022/04/06 08:00:17;;;;;;;18.77;3.70;;;8.80;99.90;;;;;;5094724;28;20035;-82
2022/04/06 08:02:47;;;;;;;11.00;2.95;;;8.20;99.90;;;;;;5095134;28;20358;-82
2022/04/06 08:05:14;;;;;;;11.27;3.78;;;8.80;99.90;;;;;;5111148;28;20047;-82
2022/04/06 08:07:43;;;;;;;20.10;4.20;;;8.30;99.90;;;;;;5095080;28;20143;-79
2022/04/06 08:10:16;;;;;;;16.90;3.53;;;8.60;99.90;;;;;;5094817;28;20486;-79
2022/04/06 08:12:42;;;;;;;26.58;4.05;;;8.30;99.90;;;;;;5095093;28;20490;-83
2022/04/06 08:15:09;;;;;;;14.45;3.58;;;8.50;99.90;;;;;;5095288;28;20047;-79
2022/04/06 08:17:38;;;;;;;19.38;4.47;;;8.30;99.90;;;;;;5112519;28;20088;-82
2022/04/06 08:20:05;;;;;;;18.30;3.97;;;8.30;99.90;;;;;;5094618;28;20373;-83
2022/04/06 08:22:31;;;;;;;13.85;3.38;;;8.30;99.90;;;;;;5112268;28;20039;-81
2022/04/06 08:24:57;;;;;;;15.35;3.63;;;8.20;99.90;;;;;;5095125;28;20398;-79
2022/04/06 08:27:23;;;;;;;15.10;3.75;;;8.60;99.90;;;;;;5094232;28;20118;-82
2022/04/06 08:29:49;;;;;;;16.35;3.58;;;8.30;99.90;;;;;;5111709;28;20406;-81
2022/04/06 08:32:15;;;;;;;16.75;3.65;;;8.30;99.90;;;;;;5094363;28;20040;-80
2022/04/06 08:34:41;;;;;;;13.43;3.50;;;8.90;99.90;;;;;;5103108;28;20123;-81
2022/04/06 08:37:08;;;;;;;14.20;3.33;;;8.30;99.90;;;;;;5091495;28;20042;-83
2022/04/06 08:39:36;;;;;;;18.60;4.05;;;8.30;99.90;;;;;;5091397;28;20032;-79
2022/04/06 08:42:01;;;;;;;11.50;3.38;;;8.30;99.90;;;;;;5074097;28;20050;-83
2022/04/06 08:44:27;;;;;;;17.13;3.72;;;8.30;99.90;;;;;;5098495;28;20051;-82
2022/04/06 08:46:55;;;;;;;19.38;4.55;;;8.50;99.90;;;;;;5112432;28;20126;-81
2022/04/06 08:49:23;;;;;;;19.95;3.70;;;8.80;99.90;;;;;;5077619;28;20459;-82
2022/04/06 08:51:49;;;;;;;16.85;3.65;;;8.60;99.90;;;;;;5094236;28;20040;-84
2022/04/06 08:54:14;;;;;;;13.75;3.15;;;9.00;99.90;;;;;;5112931;28;20035;-81
2022/04/06 08:56:40;;;;;;;18.55;3.83;;;8.60;99.90;;;;;;5094718;28;20040;-83
2022/04/06 08:59:07;;;;;;;16.42;3.47;;;8.90;99.90;;;;;;5111891;28;20040;-83
2022/04/06 09:01:34;;;;;;;17.27;3.28;;;9.20;99.90;;;;;;5094489;28;20039;-82
2022/04/06 09:04:01;;;;;;;20.00;3.25;;;9.30;99.90;;;;;;5076845;28;20058;-81
2022/04/06 09:06:31;;;;;;;16.30;3.55;;;8.80;99.90;;;;;;5090279;27;20043;-80
2022/04/06 09:08:57;;;;;;;17.77;3.35;;;8.80;99.90;;;;;;5097913;28;20068;-81
2022/04/06 09:11:22;;;;;;;16.85;3.50;;;9.10;99.90;;;;;;5115863;27;20064;-81
2022/04/06 09:13:57;;;;;;;18.77;3.83;;;9.00;99.90;;;;;;5113659;28;20035;-81
2022/04/06 09:16:25;;;;;;;;;;;8.90;99.90;;;;;;5097905;27;20138;-82
2022/04/06 09:18:50;;;;;;;16.88;3.30;;;9.10;99.90;;;;;;5113844;27;19915;-85
2022/04/06 09:21:18;;;;;;;12.82;3.00;;;9.10;99.90;;;;;;5097386;27;20050;-83
2022/04/06 09:23:48;;;;;;;15.05;3.13;;;9.50;99.90;;;;;;5114654;28;20108;-84
2022/04/06 09:26:17;;;;;;;16.98;3.63;;;9.10;99.90;;;;;;5114536;28;20039;-85
2022/04/06 09:28:45;;;;;;;19.00;3.65;;;9.40;99.90;;;;;;5117040;28;20054;-84
2022/04/06 09:31:16;;;;;;;13.93;3.42;;;9.40;99.90;;;;;;5115225;28;20043;-81
2022/04/06 09:33:44;;;;;;;17.77;3.70;;;9.50;99.90;;;;;;5095765;28;20035;-83
2022/04/06 09:36:20;;;;;;;16.23;3.10;;;9.70;99.90;;;;;;5077061;28;20048;-81
2022/04/06 09:38:48;;;;;;;12.18;3.08;;;9.90;99.90;;;;;;5093806;28;20047;-83
2022/04/06 09:41:15;;;;;;;17.83;4.00;;;9.80;99.90;;;;;;5093873;28;20485;-81
2022/04/06 09:43:41;;;;;;;19.13;3.42;;;9.90;99.90;;;;;;5093491;28;20043;-81
2022/04/06 09:49:26;;;;;;;20.75;3.70;;;10.00;99.90;;;;;;5012236;28;20111;-84
2022/04/06 09:51:52;;;;;;;16.50;3.33;;;10.00;99.90;;;;;;5029457;28;20129;-82
2022/04/06 09:54:18;;;;;;;19.05;3.40;;;10.00;99.90;;;;;;5013059;28;20129;-83
2022/04/06 09:56:54;;;;;;;19.20;3.85;;;10.00;99.90;;;;;;4996556;28;20135;-80
2022/04/06 09:59:20;;;;;;;16.23;3.67;;;9.90;99.90;;;;;;5029410;28;20583;-83
2022/04/06 10:01:48;;;;;;;16.17;3.75;;;10.50;99.90;;;;;;5012971;28;20083;-83
2022/04/06 10:04:19;;;;;;;22.20;4.00;;;10.00;99.90;;;;;;5028517;28;20124;-83
2022/04/06 10:06:44;;;;;;;16.35;3.28;;;10.00;99.90;;;;;;5027559;28;20053;-83
2022/04/06 10:09:16;;;;;;;18.92;3.65;;;10.00;99.90;;;;;;5032122;28;20041;-84
2022/04/06 10:11:42;;;;;;;17.85;3.85;;;10.10;99.90;;;;;;5048986;28;20045;-82
2022/04/06 10:14:11;;;;;;;19.40;4.03;;;10.10;99.90;;;;;;5031754;28;20037;-82
2022/04/06 10:16:38;;;;;;;18.23;3.85;;;10.00;99.90;;;;;;5032333;28;20037;-84
2022/04/06 10:19:13;;;;;;;19.70;4.18;;;10.40;99.90;;;;;;5014503;28;20473;-82
2022/04/06 10:21:45;;;;;;;19.88;4.03;;;10.10;99.90;;;;;;5049055;28;20048;-83
2022/04/06 10:24:32;;;;;;;15.65;3.88;;;9.90;99.90;;;;;;5044662;28;20039;-85
2022/04/06 10:27:27;;;;;;;20.85;4.43;;;9.90;99.90;;;;;;5113728;28;20463;-82
2022/04/06 10:30:13;;;;;;;24.10;4.45;;;9.80;99.90;;;;;;5114375;28;20143;-80
2022/04/06 10:32:47;;;;;;;23.38;4.20;;;9.90;99.90;;;;;;5114100;28;20047;-84
2022/04/06 10:35:35;;;;;;;20.48;3.90;;;9.80;99.90;;;;;;5092982;28;20040;-84
2022/04/06 10:38:04;;;;;;;24.92;4.30;;;9.80;99.90;;;;;;5093646;28;20036;-84
2022/04/06 10:41:05;;;;;;;26.50;4.03;;;9.80;99.90;;;;;;5094945;28;20068;-82
2022/04/06 10:43:34;;;;;;;23.30;4.85;;;10.30;99.90;;;;;;5018727;28;20051;-85
2022/04/06 10:46:00;;;;;;;22.70;4.50;;;9.90;99.90;;;;;;5035220;28;20481;-84
2022/04/06 10:48:26;;;;;;;24.05;4.03;;;10.00;99.90;;;;;;5034734;28;20053;-81
2022/04/06 10:50:53;;;;;;;28.20;5.28;;;9.80;99.90;;;;;;5052048;28;20711;-88
2022/04/06 10:53:19;;;;;;;15.57;4.18;;;9.80;99.90;;;;;;5018760;28;20143;-84
2022/04/06 10:56:16;;;;;;;19.17;4.93;;;10.40;99.90;;;;;;5052118;28;20452;-81
2022/04/06 10:58:56;;;;;;;18.30;4.55;;;9.90;99.90;;;;;;5018207;28;20523;-84
2022/04/06 11:01:29;;;;;;;21.95;4.30;;;9.90;99.90;;;;;;5018769;28;20064;-83
2022/04/06 11:04:06;;;;;;;27.95;4.78;;;9.80;99.90;;;;;;5034936;28;20568;-85
2022/04/06 11:06:41;;;;;;;25.30;4.75;;;9.90;99.90;;;;;;5018619;28;20049;-85
2022/04/06 11:12:20;;;;;;;17.02;3.80;;;10.10;99.90;;;;;;5051956;28;20409;-80
2022/04/06 11:14:49;;;;;;;21.17;4.72;;;10.00;99.90;;;;;;5051926;28;20041;-83
2022/04/06 11:17:45;;;;;;;27.40;4.60;;;10.00;99.90;;;;;;5018717;28;20064;-82
2022/04/06 11:20:14;;;;;;;22.33;4.55;;;10.00;99.90;;;;;;5013720;28;20052;-82
2022/04/06 11:22:43;;;;;;;16.65;3.85;;;10.10;99.90;;;;;;5018418;28;20052;-83
2022/04/06 11:25:20;;;;;;;27.35;5.03;;;9.90;99.90;;;;;;5034981;28;20053;-83
2022/04/06 11:27:46;;;;;;;33.30;5.18;;;9.90;99.90;;;;;;5018181;28;20597;-83
2022/04/06 11:30:14;;;;;;;28.13;5.07;;;9.70;99.90;;;;;;5018562;28;20049;-82
2022/04/06 11:32:53;;;;;;;19.38;4.22;;;10.70;99.90;;;;;;5034728;28;20041;-81
2022/04/06 11:35:25;;;;;;;25.98;4.45;;;10.20;99.90;;;;;;5017076;28;20106;-83
2022/04/06 11:37:51;;;;;;;24.75;4.88;;;10.50;99.90;;;;;;5034937;28;20459;-85
2022/04/06 11:40:25;;;;;;;20.13;4.20;;;10.70;99.90;;;;;;5034474;28;20063;-82
2022/04/06 11:42:52;;;;;;;27.00;5.40;;;10.70;99.90;;;;;;5034334;28;20532;-83
2022/04/06 11:45:28;;;;;;;22.67;4.95;;;10.90;99.90;;;;;;5033955;28;20079;-82
2022/04/06 11:47:56;;;;;;;26.98;4.90;;;11.00;99.90;;;;;;5034358;28;20076;-83
2022/04/06 11:50:27;;;;;;;22.52;4.50;;;11.00;99.90;;;;;;5033855;28;20052;-82
2022/04/06 11:52:53;;;;;;;28.50;4.53;;;11.60;99.90;;;;;;5034005;28;20132;-83
2022/04/06 11:55:19;;;;;;;23.05;4.30;;;11.30;99.90;;;;;;5034300;28;20214;-84
2022/04/06 11:57:46;;;;;;;28.58;4.03;;;11.20;99.90;;;;;;5074644;28;20047;-83
2022/04/06 12:00:13;;;;;;;22.65;4.35;;;11.50;99.90;;;;;;5091597;28;20086;-81
2022/04/06 12:03:05;;;;;;;20.58;4.10;;;11.90;99.90;;;;;;5094330;28;20126;-84
2022/04/06 12:05:33;;;;;;;17.60;3.70;;;11.80;99.90;;;;;;5098936;28;20055;-81
2022/04/06 12:08:13;;;;;;;22.35;4.28;;;12.10;99.90;;;;;;5105210;28;20103;-83
2022/04/06 12:10:56;;;;;;;15.27;3.30;;;12.40;99.90;;;;;;5113129;28;20478;-83
2022/04/06 12:13:24;;;;;;;22.40;4.20;;;12.40;99.90;;;;;;5094603;28;20176;-83
2022/04/06 12:15:50;;;;;;;16.13;3.55;;;12.30;99.90;;;;;;5095251;28;20130;-86
2022/04/06 12:18:18;;;;;;;19.10;3.13;;;12.30;99.90;;;;;;5111522;28;20359;-82
2022/04/06 12:20:46;;;;;;;13.75;2.80;;;12.20;99.90;;;;;;5113598;28;20424;-82
2022/04/06 12:23:15;;;;;;;16.90;3.22;;;12.00;99.90;;;;;;5111692;28;20035;-82
2022/04/06 12:25:41;;;;;;;18.27;3.65;;;12.10;99.90;;;;;;5094264;28;20069;-83
2022/04/06 12:28:18;;;;;;;15.82;3.35;;;11.80;99.90;;;;;;5094714;28;20122;-82
2022/04/06 12:31:05;;;;;;;17.20;3.28;;;11.70;99.90;;;;;;5113740;28;20443;-82
2022/04/06 12:33:51;;;;;;;17.30;3.35;;;11.80;99.90;;;;;;5114114;28;20123;-80
2022/04/06 12:36:23;;;;;;;15.02;3.00;;;11.90;99.90;;;;;;5081627;28;20048;-86
2022/04/06 12:39:03;;;;;;;17.85;3.45;;;12.10;99.90;;;;;;5074603;28;20463;-86
2022/04/06 12:41:31;;;;;;;18.20;3.15;;;12.40;99.90;;;;;;5074612;28;20039;-83
2022/04/06 12:43:58;;;;;;;18.05;3.20;;;12.50;99.90;;;;;;5094172;28;20206;-82
2022/04/06 12:46:44;;;;;;;21.25;3.83;;;12.00;99.90;;;;;;5077246;28;20393;-86
2022/04/06 12:49:42;;;;;;;18.75;2.90;;;12.00;99.90;;;;;;5093924;28;20119;-81
2022/04/06 12:52:16;;;;;;;19.75;3.75;;;11.80;99.90;;;;;;5010138;28;20108;-81
2022/04/06 12:54:46;;;;;;;11.47;2.63;;;11.60;99.90;;;;;;4993897;28;20477;-83
2022/04/06 12:57:18;;;;;;;13.60;2.95;;;11.90;99.90;;;;;;5009732;28;20131;-84
2022/04/06 12:59:57;;;;;;;18.05;3.60;;;11.70;99.90;;;;;;4993773;28;20492;-84